createdAt,value
2022-11-24T00:00:33.836Z,33.28
2022-11-24T00:03:36.856Z,35.90
2022-11-24T00:06:39.404Z,38.63
2022-11-24T00:09:41.835Z,43.15
2022-11-24T00:12:44.262Z,40.53
2022-11-24T00:15:46.668Z,45.67
2022-11-24T00:18:50.599Z,50.90
2022-11-24T00:21:53.061Z,33.47
2022-11-24T00:24:55.466Z,34.10
2022-11-24T00:27:57.782Z,31.07
2022-11-24T00:31:00.906Z,32.72
2022-11-24T00:34:06.279Z,33.33
2022-11-24T00:37:08.701Z,33.97
2022-11-24T00:40:11.655Z,35.07
2022-11-24T00:43:14.088Z,37.90
2022-11-24T00:46:17.087Z,36.33
2022-11-24T00:49:19.736Z,33.90
2022-11-24T00:52:22.127Z,35.67
2022-11-24T00:55:24.615Z,37.15
2022-11-24T00:58:27.366Z,38.25
2022-11-24T01:01:33.885Z,35.17
2022-11-24T01:04:36.640Z,29.60
2022-11-24T01:07:39.189Z,30.23
2022-11-24T01:10:41.804Z,31.42
2022-11-24T01:13:47.026Z,33.35
2022-11-24T01:16:49.488Z,47.38
2022-11-24T01:19:51.950Z,41.27
2022-11-24T01:22:54.636Z,39.47
2022-11-24T01:25:57.055Z,36.83
2022-11-24T01:28:59.485Z,32.30
2022-11-24T01:32:01.987Z,28.13
2022-11-24T01:35:05.995Z,26.92
2022-11-24T01:38:08.435Z,24.23
2022-11-24T01:41:15.189Z,24.95
2022-11-24T01:44:27.011Z,24.80
2022-11-24T01:47:40.734Z,24.40
2022-11-24T01:50:44.084Z,21.77
2022-11-24T01:53:54.275Z,23.13
2022-11-24T01:57:03.121Z,21.33
2022-11-24T02:00:09.782Z,21.43
2022-11-24T02:03:24.007Z,19.75
2022-11-24T02:06:31.585Z,20.95
2022-11-24T02:09:36.612Z,24.90
2022-11-24T02:12:42.335Z,23.73
2022-11-24T02:15:44.778Z,23.10
2022-11-24T02:18:47.468Z,25.95
2022-11-24T02:21:49.926Z,22.08
2022-11-24T02:25:01.522Z,20.58
2022-11-24T02:28:08.566Z,20.43
2022-11-24T02:31:11.801Z,25.00
2022-11-24T02:34:14.273Z,22.50
2022-11-24T02:37:16.683Z,21.23
2022-11-24T02:40:25.122Z,23.20
2022-11-24T02:43:32.583Z,23.27
2022-11-24T02:46:35.062Z,23.75
2022-11-24T02:49:38.080Z,25.90
2022-11-24T02:52:40.528Z,24.35
2022-11-24T02:55:42.897Z,23.63
2022-11-24T02:58:45.275Z,23.40
2022-11-24T03:01:48.018Z,22.35
2022-11-24T03:04:50.574Z,24.70
2022-11-24T03:07:53.134Z,23.10
2022-11-24T03:10:55.700Z,22.93
2022-11-24T03:13:58.835Z,23.17
2022-11-24T03:17:01.365Z,25.88
2022-11-24T03:20:05.388Z,24.10
2022-11-24T03:23:08.011Z,27.70
2022-11-24T03:26:13.142Z,22.17
2022-11-24T03:29:15.588Z,22.60
2022-11-24T03:32:18.151Z,22.60
2022-11-24T03:35:21.355Z,21.43
2022-11-24T03:38:23.903Z,20.65
2022-11-24T03:41:26.454Z,23.90
2022-11-24T03:44:28.953Z,21.65
2022-11-24T03:47:31.376Z,22.43
2022-11-24T03:50:33.770Z,20.50
2022-11-24T03:53:36.300Z,24.17
2022-11-24T03:56:44.298Z,21.73
2022-11-24T03:59:49.971Z,23.85
2022-11-24T04:02:56.934Z,23.70
2022-11-24T04:05:59.358Z,23.10
2022-11-24T04:09:01.687Z,25.15
2022-11-24T04:12:22.821Z,23.30
2022-11-24T04:15:25.162Z,26.00
2022-11-24T04:18:27.595Z,25.70
2022-11-24T04:21:29.979Z,25.73
2022-11-24T04:24:32.689Z,24.85
2022-11-24T04:27:36.956Z,25.63
2022-11-24T04:30:44.476Z,24.57
2022-11-24T04:33:46.983Z,25.67
2022-11-24T04:36:49.445Z,28.50
2022-11-24T04:39:51.889Z,25.25
2022-11-24T04:42:57.661Z,25.37
2022-11-24T04:46:01.623Z,27.70
2022-11-24T04:49:04.237Z,28.08
2022-11-24T04:52:06.666Z,27.00
2022-11-24T04:55:09.623Z,29.17
2022-11-24T04:58:12.364Z,31.42
2022-11-24T05:01:15.127Z,30.63
2022-11-24T05:04:20.445Z,31.10
2022-11-24T05:07:22.951Z,29.60
2022-11-24T05:10:38.106Z,31.10
2022-11-24T05:13:40.643Z,28.75
2022-11-24T05:16:43.312Z,28.83
2022-11-24T05:19:45.705Z,23.63
2022-11-24T05:22:48.107Z,27.00
2022-11-24T05:25:50.944Z,25.17
2022-11-24T05:28:53.725Z,27.45
2022-11-24T05:31:56.142Z,24.95
2022-11-24T05:35:00.588Z,36.23
2022-11-24T05:38:04.444Z,33.30
2022-11-24T05:41:06.829Z,29.42
2022-11-24T05:44:09.381Z,30.52
2022-11-24T05:47:11.728Z,27.57
2022-11-24T05:50:16.073Z,27.70
2022-11-24T05:53:18.531Z,27.95
2022-11-24T05:56:20.993Z,31.95
2022-11-24T05:59:23.448Z,31.83
2022-11-24T06:02:28.957Z,31.13
2022-11-24T06:05:32.033Z,33.10
2022-11-24T06:08:34.616Z,31.80
2022-11-24T06:11:38.179Z,30.37
2022-11-24T06:14:41.645Z,31.37
2022-11-24T06:17:44.665Z,35.28
2022-11-24T06:21:09.291Z,31.80
2022-11-24T06:24:48.235Z,35.70
2022-11-24T06:27:50.987Z,43.83
2022-11-24T06:30:53.630Z,42.42
2022-11-24T06:33:56.719Z,39.67
2022-11-24T06:36:59.325Z,38.22
2022-11-24T06:40:01.883Z,32.83
2022-11-24T06:43:04.604Z,29.15
2022-11-24T06:46:07.796Z,36.63
2022-11-24T06:49:10.653Z,32.40
2022-11-24T06:52:13.288Z,31.93
2022-11-24T06:55:16.134Z,34.97
2022-11-24T06:58:18.855Z,34.10
2022-11-24T07:01:23.995Z,36.47
2022-11-24T07:04:26.609Z,39.13
2022-11-24T07:07:29.007Z,36.25
2022-11-24T07:10:33.868Z,35.72
2022-11-24T07:13:36.718Z,41.50
2022-11-24T07:16:40.255Z,38.33
2022-11-24T07:19:42.819Z,39.08
2022-11-24T07:22:45.330Z,41.38
2022-11-24T07:25:47.781Z,39.40
2022-11-24T07:28:50.999Z,41.00
2022-11-24T07:31:53.519Z,43.25
2022-11-24T07:34:56.260Z,44.28
2022-11-24T07:37:59.356Z,39.60
2022-11-24T07:41:22.156Z,36.57
2022-11-24T07:44:26.957Z,39.25
2022-11-24T07:47:29.438Z,39.05
2022-11-24T07:50:34.549Z,37.43
2022-11-24T07:53:38.459Z,39.60
2022-11-24T07:56:41.335Z,45.03
2022-11-24T07:59:44.228Z,44.60
2022-11-24T08:02:46.738Z,39.43
2022-11-24T08:09:22.081Z,40.85
2022-11-24T08:12:24.601Z,35.22
2022-11-24T08:15:27.399Z,35.58
2022-11-24T08:18:30.252Z,36.53
2022-11-24T08:21:32.810Z,38.83
2022-11-24T08:24:35.582Z,42.05
2022-11-24T08:27:40.158Z,50.43
2022-11-24T08:30:46.581Z,41.10
2022-11-24T08:33:49.102Z,40.00
2022-11-24T08:36:52.324Z,41.75
2022-11-24T08:39:54.855Z,51.08
2022-11-24T08:42:58.642Z,51.17
2022-11-24T08:46:07.138Z,41.05
2022-11-24T08:49:10.710Z,38.95
2022-11-24T08:52:16.021Z,41.27
2022-11-24T08:55:18.958Z,36.57
2022-11-24T08:58:21.496Z,38.55
2022-11-24T09:01:25.573Z,35.25
2022-11-24T09:04:28.388Z,35.20
2022-11-24T09:07:30.953Z,35.97
2022-11-24T09:10:33.639Z,40.17
2022-11-24T09:13:37.054Z,38.35
2022-11-24T09:16:39.697Z,35.20
2022-11-24T09:19:42.209Z,34.57
2022-11-24T09:22:44.967Z,35.38
2022-11-24T09:25:47.682Z,36.05
2022-11-24T09:28:54.467Z,31.98
2022-11-24T09:32:00.736Z,32.03
2022-11-24T09:35:06.454Z,31.65
2022-11-24T09:38:09.980Z,32.95
2022-11-24T09:41:19.050Z,33.45
2022-11-24T09:44:50.080Z,31.23
2022-11-24T09:48:08.555Z,31.80
2022-11-24T09:51:13.865Z,32.97
2022-11-24T09:54:21.775Z,28.50
2022-11-24T09:57:34.124Z,33.03
2022-11-24T10:00:54.808Z,29.73
2022-11-24T10:04:02.585Z,30.13
2022-11-24T10:07:20.131Z,31.00
2022-11-24T10:10:33.080Z,34.70
2022-11-24T10:14:04.935Z,34.15
2022-11-24T10:17:18.928Z,34.85
2022-11-24T10:20:45.321Z,33.58
2022-11-24T10:24:20.907Z,36.47
2022-11-24T10:27:33.805Z,38.40
2022-11-24T10:30:37.531Z,37.25
2022-11-24T10:33:41.356Z,38.03
2022-11-24T10:37:13.959Z,41.30
2022-11-24T10:40:55.827Z,46.60
2022-11-24T10:43:58.023Z,45.72
2022-11-24T10:47:00.501Z,47.85
2022-11-24T10:50:20.122Z,49.45
2022-11-24T10:53:26.921Z,39.15
2022-11-24T10:56:41.453Z,38.07
2022-11-24T10:59:44.209Z,40.22
2022-11-24T11:02:48.755Z,37.50
2022-11-24T11:06:11.565Z,38.05
2022-11-24T11:09:23.485Z,40.77
2022-11-24T11:12:47.634Z,39.40
2022-11-24T11:15:50.380Z,45.35
2022-11-24T11:18:53.655Z,37.88
2022-11-24T11:22:24.009Z,40.28
2022-11-24T11:25:33.383Z,43.90
2022-11-24T11:28:35.923Z,46.17
2022-11-24T11:31:39.612Z,41.00
2022-11-24T11:34:42.379Z,42.28
2022-11-24T11:37:46.876Z,43.20
2022-11-24T11:40:51.384Z,45.00
2022-11-24T11:44:24.336Z,42.45
2022-11-24T11:47:29.356Z,40.55
2022-11-24T11:50:47.383Z,40.70
2022-11-24T11:54:27.350Z,41.07
2022-11-24T11:57:41.947Z,40.92
2022-11-24T12:01:05.472Z,41.53
2022-11-24T12:04:14.582Z,39.40
2022-11-24T12:07:35.563Z,42.33
2022-11-24T12:10:59.630Z,38.90
2022-11-24T12:14:17.392Z,39.50
2022-11-24T12:17:40.442Z,38.25
2022-11-24T12:20:55.911Z,34.03
2022-11-24T12:24:37.720Z,34.37
2022-11-24T12:28:08.527Z,39.17
2022-11-24T12:31:37.522Z,40.35
2022-11-24T12:35:05.987Z,31.80
2022-11-24T12:38:26.569Z,31.03
2022-11-24T12:41:47.579Z,41.10
2022-11-24T12:44:59.116Z,43.13
2022-11-24T12:48:07.671Z,39.25
2022-11-24T12:51:19.060Z,29.00
2022-11-24T12:54:22.596Z,38.63
2022-11-24T12:57:43.870Z,36.78
2022-11-24T13:01:11.575Z,27.50
2022-11-24T13:04:59.092Z,34.75
2022-11-24T13:08:03.943Z,30.23
2022-11-24T13:11:21.667Z,33.70
2022-11-24T13:14:38.342Z,30.88
2022-11-24T13:17:59.467Z,33.17
2022-11-24T13:21:03.595Z,32.08
2022-11-24T13:24:19.702Z,34.80
2022-11-24T13:27:28.519Z,29.05
2022-11-24T13:30:34.049Z,28.92
2022-11-24T13:33:37.729Z,28.52
2022-11-24T13:36:53.165Z,29.60
2022-11-24T13:40:01.026Z,30.97
2022-11-24T13:43:04.812Z,29.42
2022-11-24T13:46:09.877Z,30.45
2022-11-24T13:49:20.577Z,32.95
2022-11-24T13:52:43.955Z,30.33
2022-11-24T13:56:17.811Z,30.35
2022-11-24T13:59:33.057Z,35.47
2022-11-24T14:02:35.847Z,39.77
2022-11-24T14:05:40.126Z,35.40
2022-11-24T14:08:46.498Z,36.25
2022-11-24T14:12:08.313Z,37.33
2022-11-24T14:15:27.111Z,38.67
2022-11-24T14:18:30.058Z,41.13
2022-11-24T14:21:42.259Z,44.97
2022-11-24T14:24:47.235Z,40.05
2022-11-24T14:27:50.235Z,48.88
2022-11-24T14:31:18.017Z,41.87
2022-11-24T14:34:23.166Z,39.03
2022-11-24T14:37:25.757Z,41.03
2022-11-24T14:40:52.038Z,48.00
2022-11-24T14:44:28.922Z,43.23
2022-11-24T14:47:37.163Z,44.53
2022-11-24T14:50:39.780Z,39.20
2022-11-24T14:53:49.160Z,46.83
2022-11-24T14:57:05.943Z,42.80
2022-11-24T15:00:17.148Z,43.35
2022-11-24T15:03:19.897Z,40.97
2022-11-24T15:06:22.342Z,36.97
2022-11-24T15:09:34.627Z,47.10
2022-11-24T15:12:42.506Z,41.10
2022-11-24T15:15:57.597Z,41.92
2022-11-24T15:19:03.997Z,45.70
2022-11-24T15:22:39.282Z,49.30
2022-11-24T15:25:52.002Z,44.33
2022-11-24T15:28:54.379Z,42.95
2022-11-24T15:31:58.695Z,44.70
2022-11-24T15:35:01.274Z,48.58
2022-11-24T15:38:03.708Z,45.97
2022-11-24T15:41:18.174Z,58.38
2022-11-24T15:44:20.627Z,61.53
2022-11-24T15:47:23.014Z,57.53
2022-11-24T15:50:27.936Z,40.67
2022-11-24T15:53:40.454Z,54.22
2022-11-24T15:56:44.548Z,54.42
2022-11-24T15:59:53.792Z,54.67
2022-11-24T16:02:56.970Z,41.20
2022-11-24T16:05:59.481Z,45.72
2022-11-24T16:09:02.003Z,41.75
2022-11-24T16:12:04.761Z,43.58
2022-11-24T16:15:07.605Z,41.00
2022-11-24T16:18:10.473Z,40.47
2022-11-24T16:21:12.993Z,42.80
2022-11-24T16:24:15.497Z,45.72
2022-11-24T16:27:18.066Z,43.43
2022-11-24T16:30:20.937Z,46.05
2022-11-24T16:33:23.980Z,48.58
2022-11-24T16:36:26.783Z,47.97
2022-11-24T16:39:29.435Z,47.73
2022-11-24T16:42:31.888Z,52.75
2022-11-24T16:45:34.327Z,49.47
2022-11-24T16:48:37.846Z,56.27
2022-11-24T16:51:42.520Z,49.20
2022-11-24T16:54:48.241Z,50.03
2022-11-24T16:57:51.035Z,48.90
2022-11-24T17:00:53.969Z,46.75
2022-11-24T17:03:56.436Z,46.03
2022-11-24T17:06:59.130Z,41.97
2022-11-24T17:10:01.622Z,44.33
2022-11-24T17:13:04.503Z,48.90
2022-11-24T17:16:09.132Z,46.27
2022-11-24T17:19:12.886Z,50.78
2022-11-24T17:22:15.277Z,41.00
2022-11-24T17:25:17.972Z,43.27
2022-11-24T17:28:21.131Z,41.70
2022-11-24T17:31:26.342Z,48.25
2022-11-24T17:34:29.679Z,49.58
2022-11-24T17:37:32.749Z,52.07
2022-11-24T17:40:35.735Z,39.87
2022-11-24T17:43:38.580Z,41.97
2022-11-24T17:46:41.557Z,39.30
2022-11-24T17:49:44.569Z,37.92
2022-11-24T17:52:47.318Z,53.20
2022-11-24T17:55:49.970Z,71.40
2022-11-24T17:58:57.940Z,55.45
2022-11-24T18:02:02.843Z,44.70
2022-11-24T18:05:06.104Z,44.43
2022-11-24T18:08:09.565Z,44.85
2022-11-24T18:11:25.930Z,45.60
2022-11-24T18:14:33.490Z,51.07
2022-11-24T18:17:36.754Z,47.63
2022-11-24T18:20:39.686Z,50.95
2022-11-24T18:23:43.787Z,54.38
2022-11-24T18:26:46.866Z,56.33
2022-11-24T18:29:54.852Z,58.53
2022-11-24T18:32:58.951Z,57.38
2022-11-24T18:36:03.513Z,61.95
2022-11-24T18:39:08.105Z,56.43
2022-11-24T18:42:10.868Z,52.83
2022-11-24T18:45:13.535Z,50.10
2022-11-24T18:48:17.070Z,56.38
2022-11-24T18:51:20.161Z,58.80
2022-11-24T18:54:22.916Z,60.30
2022-11-24T18:57:25.529Z,60.50
2022-11-24T19:00:28.537Z,59.15
2022-11-24T19:03:30.975Z,59.00
2022-11-24T19:06:36.003Z,52.35
2022-11-24T19:09:38.836Z,58.13
2022-11-24T19:12:44.915Z,53.10
2022-11-24T19:15:49.627Z,54.83
2022-11-24T19:18:56.691Z,51.10
2022-11-24T19:22:03.277Z,52.85
2022-11-24T19:25:06.799Z,49.97
2022-11-24T19:28:12.937Z,54.40
2022-11-24T19:31:18.173Z,57.97
2022-11-24T19:34:20.868Z,54.35
2022-11-24T19:37:23.739Z,54.90
2022-11-24T19:40:28.075Z,59.08
2022-11-24T19:43:31.410Z,56.63
2022-11-24T19:46:34.128Z,54.67
2022-11-24T19:49:36.687Z,56.23
2022-11-24T19:52:39.475Z,53.28
2022-11-24T19:55:42.238Z,50.28
2022-11-24T19:58:46.110Z,44.03
2022-11-24T20:01:49.128Z,43.27
2022-11-24T20:04:51.959Z,42.97
2022-11-24T20:07:54.937Z,45.08
2022-11-24T20:11:05.870Z,46.15
2022-11-24T20:14:12.495Z,44.77
2022-11-24T20:17:15.132Z,44.42
2022-11-24T20:20:17.972Z,40.47
2022-11-24T20:23:20.847Z,41.47
2022-11-24T20:26:25.513Z,40.47
2022-11-24T20:29:29.486Z,40.40
2022-11-24T20:32:32.184Z,40.65
2022-11-24T20:35:34.812Z,37.67
2022-11-24T20:38:38.556Z,36.90
2022-11-24T20:41:41.444Z,41.38
2022-11-24T20:44:44.124Z,37.75
2022-11-24T20:47:46.625Z,39.33
2022-11-24T20:50:51.474Z,39.53
2022-11-24T20:53:57.937Z,44.47
2022-11-24T20:57:00.604Z,40.08
2022-11-24T21:00:04.519Z,39.35
2022-11-24T21:03:08.554Z,43.30
2022-11-24T21:06:14.801Z,40.13
2022-11-24T21:09:18.500Z,46.83
2022-11-24T21:12:21.135Z,43.45
2022-11-24T21:15:24.047Z,43.43
2022-11-24T21:18:26.996Z,40.60
2022-11-24T21:21:34.155Z,44.92
2022-11-24T21:24:37.140Z,38.58
2022-11-24T21:27:40.275Z,38.23
2022-11-24T21:30:42.765Z,38.17
2022-11-24T21:33:50.850Z,40.85
2022-11-24T21:36:53.483Z,33.07
2022-11-24T21:39:55.868Z,37.13
2022-11-24T21:42:59.682Z,38.22
2022-11-24T21:46:07.108Z,40.15
2022-11-24T21:49:09.721Z,43.53
2022-11-24T21:52:12.381Z,47.15
2022-11-24T21:55:15.187Z,44.35
2022-11-24T21:58:17.576Z,36.83
2022-11-24T22:01:21.851Z,35.80
2022-11-24T22:04:24.644Z,35.78
2022-11-24T22:07:31.539Z,36.00
2022-11-24T22:10:34.970Z,34.60
2022-11-24T22:13:37.424Z,32.00
2022-11-24T22:16:40.132Z,30.17
2022-11-24T22:19:42.616Z,34.72
2022-11-24T22:22:45.216Z,52.23
2022-11-24T22:25:47.684Z,46.97
2022-11-24T22:28:51.025Z,41.65
2022-11-24T22:31:54.274Z,36.35
2022-11-24T22:34:56.838Z,35.80
2022-11-24T22:37:59.280Z,31.38
2022-11-24T22:41:07.116Z,32.42
2022-11-24T22:44:09.575Z,32.08
2022-11-24T22:47:12.013Z,30.00
2022-11-24T22:50:14.852Z,29.17
2022-11-24T22:53:17.308Z,27.65
2022-11-24T22:56:20.715Z,30.00
2022-11-24T22:59:23.446Z,27.60
2022-11-24T23:02:25.907Z,33.60
2022-11-24T23:05:29.226Z,34.50
2022-11-24T23:08:36.103Z,30.33
2022-11-24T23:11:40.781Z,36.53
2022-11-24T23:14:43.225Z,34.17
2022-11-24T23:17:45.604Z,33.67
2022-11-24T23:20:47.991Z,31.48
2022-11-24T23:23:51.339Z,31.13
2022-11-24T23:26:54.107Z,34.85
2022-11-24T23:29:56.495Z,38.20
2022-11-24T23:32:59.433Z,32.85
2022-11-24T23:36:05.087Z,29.60
2022-11-24T23:39:14.428Z,31.10
2022-11-24T23:42:16.871Z,29.70
2022-11-24T23:45:19.305Z,30.73
2022-11-24T23:48:21.872Z,32.27
2022-11-24T23:51:27.973Z,32.60
2022-11-24T23:54:30.647Z,31.75
2022-11-24T23:57:33.060Z,32.30
